createdAt,value
2018-12-09T00:02:49.506Z,6.47
2018-12-09T00:07:52.781Z,6.42
2018-12-09T00:12:55.913Z,6.52
2018-12-09T00:17:59.071Z,6.45
2018-12-09T00:23:02.221Z,6.31
2018-12-09T00:28:05.568Z,6.28
2018-12-09T00:33:08.766Z,6.23
2018-12-09T00:38:14.761Z,6.40
2018-12-09T00:43:18.033Z,6.36
2018-12-09T00:48:21.206Z,6.45
2018-12-09T00:53:24.379Z,6.43
2018-12-09T00:58:27.573Z,6.54
2018-12-09T01:03:30.781Z,6.62
2018-12-09T01:08:33.991Z,6.63
2018-12-09T01:13:37.240Z,6.57
2018-12-09T01:18:40.376Z,6.58
2018-12-09T01:23:43.577Z,6.70
2018-12-09T01:28:46.873Z,6.71
2018-12-09T01:33:50.141Z,6.72
2018-12-09T01:38:53.276Z,6.67
2018-12-09T01:43:56.485Z,6.47
2018-12-09T01:48:59.661Z,6.42
2018-12-09T01:54:08.408Z,6.49
2018-12-09T01:59:11.585Z,6.58
2018-12-09T02:04:15.073Z,6.59
2018-12-09T02:09:18.263Z,6.78
2018-12-09T02:14:21.456Z,6.78
2018-12-09T02:19:24.668Z,6.90
2018-12-09T02:24:27.842Z,6.96
2018-12-09T02:29:31.031Z,7.12
2018-12-09T02:34:34.262Z,7.08
2018-12-09T02:39:37.426Z,7.14
2018-12-09T02:44:40.787Z,7.15
2018-12-09T02:49:43.940Z,7.11
2018-12-09T02:54:47.491Z,7.14
2018-12-09T02:59:50.778Z,7.06
2018-12-09T03:04:54.088Z,6.84
2018-12-09T03:09:57.250Z,6.63
2018-12-09T03:15:00.745Z,6.70
2018-12-09T03:20:04.085Z,6.88
2018-12-09T03:25:07.472Z,6.95
2018-12-09T03:30:10.797Z,7.01
2018-12-09T03:35:13.996Z,7.08
2018-12-09T03:40:17.165Z,7.20
2018-12-09T03:45:21.001Z,7.30
2018-12-09T03:50:24.140Z,7.45
2018-12-09T03:55:27.442Z,7.49
2018-12-09T04:00:30.585Z,7.52
2018-12-09T04:05:34.739Z,7.53
2018-12-09T04:10:38.481Z,7.68
2018-12-09T04:15:41.609Z,7.80
2018-12-09T04:20:45.252Z,7.78
2018-12-09T04:25:48.463Z,7.96
2018-12-09T04:30:51.665Z,7.89
2018-12-09T04:35:54.880Z,7.91
2018-12-09T04:40:58.254Z,7.93
2018-12-09T04:46:01.463Z,7.99
2018-12-09T04:51:04.872Z,8.03
2018-12-09T04:56:08.188Z,7.94
2018-12-09T05:01:11.424Z,7.94
2018-12-09T05:06:14.582Z,7.98
2018-12-09T05:11:17.817Z,8.07
2018-12-09T05:16:21.051Z,8.08
2018-12-09T05:21:24.312Z,8.15
2018-12-09T05:26:27.520Z,8.09
2018-12-09T05:31:31.129Z,8.14
2018-12-09T05:36:34.690Z,8.25
2018-12-09T05:41:38.109Z,8.24
2018-12-09T05:46:41.401Z,8.22
2018-12-09T05:51:45.469Z,8.19
2018-12-09T05:56:48.711Z,8.22
2018-12-09T06:01:54.115Z,8.31
2018-12-09T06:06:57.303Z,8.29
2018-12-09T06:12:00.455Z,8.27
2018-12-09T06:17:03.719Z,8.09
2018-12-09T06:22:07.158Z,8.00
2018-12-09T06:27:10.284Z,7.84
2018-12-09T06:32:13.573Z,7.75
2018-12-09T06:37:17.481Z,7.73
2018-12-09T06:42:20.676Z,7.62
2018-12-09T06:47:24.379Z,7.51
2018-12-09T06:52:27.551Z,7.37
2018-12-09T06:57:31.921Z,7.35
2018-12-09T07:02:35.299Z,7.40
2018-12-09T07:07:39.129Z,7.27
2018-12-09T07:12:42.349Z,7.28
2018-12-09T07:17:45.588Z,7.27
2018-12-09T07:22:48.852Z,7.26
2018-12-09T07:27:52.068Z,7.23
2018-12-09T07:32:55.268Z,7.24
2018-12-09T07:37:58.467Z,7.30
2018-12-09T07:43:01.741Z,7.26
2018-12-09T07:48:05.015Z,7.33
2018-12-09T07:53:08.242Z,7.30
2018-12-09T07:58:11.537Z,7.32
2018-12-09T08:03:14.735Z,7.51
2018-12-09T08:08:17.895Z,7.47
2018-12-09T08:13:21.171Z,7.55
2018-12-09T08:18:24.613Z,7.65
2018-12-09T08:23:35.477Z,7.61
2018-12-09T08:28:38.965Z,7.44
2018-12-09T08:33:42.076Z,7.36
2018-12-09T08:38:45.230Z,7.32
2018-12-09T08:43:48.390Z,7.18
2018-12-09T08:48:51.574Z,7.14
2018-12-09T08:53:54.700Z,7.19
2018-12-09T08:58:57.877Z,7.32
2018-12-09T09:04:01.061Z,7.40
2018-12-09T09:09:05.098Z,7.81
2018-12-09T09:14:08.617Z,7.78
2018-12-09T09:19:11.760Z,7.83
2018-12-09T09:24:14.896Z,7.82
2018-12-09T09:29:18.063Z,8.05
2018-12-09T09:34:21.352Z,8.23
2018-12-09T09:39:24.596Z,8.02
2018-12-09T09:44:27.949Z,7.91
2018-12-09T09:49:31.086Z,7.97
2018-12-09T09:54:34.202Z,7.79
2018-12-09T09:59:37.336Z,7.62
2018-12-09T10:04:40.496Z,7.50
2018-12-09T10:09:43.842Z,7.65
2018-12-09T10:14:47.011Z,7.97
2018-12-09T10:19:50.243Z,8.16
2018-12-09T10:24:53.460Z,8.17
2018-12-09T10:29:56.579Z,8.12
2018-12-09T10:34:59.777Z,8.16
2018-12-09T10:40:03.398Z,8.13
2018-12-09T10:45:06.786Z,8.07
2018-12-09T10:50:09.914Z,8.34
2018-12-09T10:55:14.333Z,8.60
2018-12-09T11:00:17.833Z,8.79
2018-12-09T11:05:21.190Z,8.96
2018-12-09T11:10:24.413Z,8.84
2018-12-09T11:15:27.650Z,8.70
2018-12-09T11:20:30.816Z,8.78
2018-12-09T11:25:33.998Z,8.65
2018-12-09T11:30:37.726Z,8.38
2018-12-09T11:35:40.906Z,8.35
2018-12-09T11:40:44.137Z,8.44
2018-12-09T11:45:47.406Z,8.66
2018-12-09T11:50:50.555Z,8.55
2018-12-09T11:55:53.808Z,8.44
2018-12-09T12:00:57.025Z,8.54
2018-12-09T12:06:02.265Z,8.71
2018-12-09T12:11:05.487Z,8.85
2018-12-09T12:16:08.739Z,8.80
2018-12-09T12:21:17.614Z,8.61
2018-12-09T12:26:20.937Z,8.33
2018-12-09T12:31:24.062Z,8.31
2018-12-09T12:36:27.272Z,8.25
2018-12-09T12:41:36.187Z,8.07
2018-12-09T12:46:39.403Z,8.10
2018-12-09T12:51:42.845Z,8.37
2018-12-09T12:56:46.219Z,8.64
2018-12-09T13:01:49.490Z,9.09
2018-12-09T13:06:52.899Z,8.81
2018-12-09T13:11:56.358Z,8.69
2018-12-09T13:17:08.648Z,8.31
2018-12-09T13:22:11.809Z,8.02
2018-12-09T13:27:15.038Z,7.99
2018-12-09T13:32:18.293Z,7.84
2018-12-09T13:37:21.378Z,7.76
2018-12-09T13:42:24.627Z,7.70
2018-12-09T13:47:28.206Z,7.67
2018-12-09T13:52:31.569Z,7.75
2018-12-09T13:57:34.704Z,7.69
2018-12-09T14:02:38.126Z,7.61
2018-12-09T14:07:42.771Z,7.70
2018-12-09T14:12:49.142Z,7.62
2018-12-09T14:17:52.519Z,7.50
2018-12-09T14:22:55.667Z,7.58
2018-12-09T14:27:58.883Z,7.55
2018-12-09T14:33:02.196Z,7.57
2018-12-09T14:38:05.325Z,7.61
2018-12-09T14:43:08.444Z,7.56
2018-12-09T14:48:11.666Z,7.53
2018-12-09T14:53:14.795Z,7.49
2018-12-09T14:58:17.978Z,7.39
2018-12-09T15:03:21.228Z,7.47
2018-12-09T15:08:24.531Z,7.41
2018-12-09T15:13:27.780Z,7.50
2018-12-09T15:18:30.942Z,7.43
2018-12-09T15:23:34.246Z,7.30
2018-12-09T15:28:42.962Z,7.26
2018-12-09T15:33:51.807Z,7.05
2018-12-09T15:39:00.547Z,6.91
2018-12-09T15:44:03.872Z,6.85
2018-12-09T15:49:07.054Z,6.85
2018-12-09T15:54:10.855Z,6.76
2018-12-09T15:59:14.386Z,6.74
2018-12-09T16:04:17.582Z,6.89
2018-12-09T16:09:22.316Z,6.87
2018-12-09T16:14:25.637Z,6.93
2018-12-09T16:19:28.998Z,6.96
2018-12-09T16:24:32.270Z,7.01
2018-12-09T16:29:35.479Z,7.02
2018-12-09T16:34:38.658Z,7.00
2018-12-09T16:39:41.885Z,7.02
2018-12-09T16:44:45.118Z,7.12
2018-12-09T16:49:49.230Z,7.07
2018-12-09T16:54:52.786Z,7.03
2018-12-09T16:59:56.110Z,6.99
2018-12-09T17:04:59.463Z,7.04
2018-12-09T17:10:03.142Z,7.07
2018-12-09T17:15:06.475Z,6.99
2018-12-09T17:20:15.234Z,6.90
2018-12-09T17:25:18.543Z,6.78
2018-12-09T17:30:21.812Z,6.73
2018-12-09T17:35:25.067Z,6.73
2018-12-09T17:40:28.401Z,6.75
2018-12-09T17:45:31.631Z,6.77
2018-12-09T17:50:34.878Z,6.75
2018-12-09T17:55:38.157Z,6.69
2018-12-09T18:00:41.320Z,6.62
2018-12-09T18:05:44.874Z,6.72
2018-12-09T18:10:48.107Z,6.79
2018-12-09T18:15:51.271Z,6.85
2018-12-09T18:20:54.459Z,6.87
2018-12-09T18:25:59.668Z,6.82
2018-12-09T18:31:03.148Z,6.90
2018-12-09T18:36:06.332Z,6.99
2018-12-09T18:41:09.621Z,6.98
2018-12-09T18:46:12.908Z,7.01
2018-12-09T18:51:17.071Z,7.03
2018-12-09T18:56:22.132Z,7.01
2018-12-09T19:01:26.183Z,7.02
2018-12-09T19:06:29.703Z,6.99
2018-12-09T19:11:35.035Z,6.96
2018-12-09T19:16:43.851Z,6.95
2018-12-09T19:21:49.333Z,7.00
2018-12-09T19:26:52.959Z,6.96
2018-12-09T19:31:57.423Z,6.80
2018-12-09T19:37:02.057Z,6.54
2018-12-09T19:42:07.043Z,6.73
2018-12-09T19:47:11.234Z,6.55
2018-12-09T19:52:15.399Z,6.51
2018-12-09T19:57:18.783Z,6.50
2018-12-09T20:02:28.047Z,6.65
2018-12-09T20:07:33.123Z,6.74
2018-12-09T20:12:38.769Z,6.79
2018-12-09T20:17:43.163Z,6.84
2018-12-09T20:22:47.667Z,6.81
2018-12-09T20:27:51.030Z,6.76
2018-12-09T20:32:57.376Z,6.63
2018-12-09T20:38:06.346Z,6.71
2018-12-09T20:43:09.769Z,6.62
2018-12-09T20:48:13.631Z,6.57
2018-12-09T20:53:17.301Z,6.38
2018-12-09T20:58:24.019Z,6.45
2018-12-09T21:03:28.877Z,6.48
2018-12-09T21:08:32.931Z,6.48
2018-12-09T21:13:36.871Z,6.51
2018-12-09T21:18:40.710Z,6.54
2018-12-09T21:23:44.281Z,6.40
2018-12-09T21:28:49.302Z,6.35
2018-12-09T21:33:56.910Z,6.36
2018-12-09T21:39:08.219Z,6.32
2018-12-09T21:44:12.847Z,6.31
2018-12-09T21:49:18.975Z,6.41
2018-12-09T21:54:25.592Z,6.44
2018-12-09T21:59:30.080Z,6.40
2018-12-09T22:04:33.228Z,6.41
2018-12-09T22:09:36.463Z,6.43
2018-12-09T22:14:39.598Z,6.38
2018-12-09T22:19:45.920Z,6.40
2018-12-09T22:24:49.342Z,6.46
2018-12-09T22:29:53.537Z,6.48
2018-12-09T22:34:56.964Z,6.43
2018-12-09T22:40:00.084Z,6.34
2018-12-09T22:45:03.888Z,6.34
2018-12-09T22:50:09.106Z,6.18
2018-12-09T22:55:12.341Z,6.07
2018-12-09T23:00:24.161Z,5.97
2018-12-09T23:05:27.634Z,5.94
2018-12-09T23:10:30.995Z,5.89
2018-12-09T23:15:34.210Z,5.79
2018-12-09T23:20:37.619Z,5.83
2018-12-09T23:25:41.383Z,5.80
2018-12-09T23:30:45.152Z,5.93
2018-12-09T23:35:48.457Z,5.89
2018-12-09T23:40:51.640Z,6.00
2018-12-09T23:45:55.741Z,5.93
2018-12-09T23:50:58.951Z,5.98
2018-12-09T23:56:02.259Z,6.03
